This is the latest recevied weather packets stored in our database for station/object N3OZD-10. If no packets are shown the sender has not sent any weather packets the latest 1 day(s).
| Time | Temp. | Humidity | Pressure | Rain* | Wind** | Luminosity | Snow |
|---|---|---|---|---|---|---|---|
| 1778079142 | 16.11° C | 95% | 1009.5 hPa | 2.03 mm | - | - | - |
| 1778077643 | 16.11° C | 94% | 1009.1 hPa | 2.29 mm | - | - | - |
| 1778077042 | 16.67° C | 93% | 1009.2 hPa | 1.78 mm | - | - | - |
| 1778075546 | 16.67° C | 88% | 1009.8 hPa | 1.02 mm | - | - | - |
| 1778072543 | 17.78° C | 77% | 1009.2 hPa | 0 mm | - | - | - |
| 1778071344 | 17.78° C | 77% | 1009.2 hPa | 0 mm | - | - | - |
| 1778070143 | 18.33° C | 74% | 1009.7 hPa | 0 mm | - | - | - |
| 1778068646 | 18.33° C | 70% | 1009.7 hPa | 0.25 mm | - | - | - |
| 1778067143 | 18.33° C | 71% | 1009.3 hPa | 0.25 mm | - | - | - |
| 1778066846 | 18.33° C | 71% | 1009.2 hPa | 0.25 mm | - | - | - |
| 1778066544 | 18.33° C | 71% | 1009.2 hPa | 0.25 mm | - | - | - |
| 1778065944 | 18.33° C | 71% | 1009.2 hPa | 0.25 mm | - | - | - |
| 1778063843 | 17.78° C | 73% | 1008.8 hPa | 0 mm | - | - | - |
| 1778063543 | 17.78° C | 73% | 1008.8 hPa | 0 mm | - | - | - |
| 1778063246 | 17.78° C | 73% | 1008.8 hPa | 0 mm | - | - | - |
| 1778062943 | 17.78° C | 72% | 1008.8 hPa | 0 mm | - | - | - |
| 1778062643 | 17.78° C | 72% | 1008.8 hPa | 0 mm | - | - | - |
| 1778061143 | 18.33° C | 71% | 1008.8 hPa | 0 mm | - | - | - |
| 1778060844 | 17.78° C | 71% | 1008.8 hPa | 0 mm | - | - | - |
| 1778060543 | 17.78° C | 70% | 1008.7 hPa | 0 mm | - | - | - |
| 1778060243 | 18.33° C | 70% | 1008.8 hPa | 0 mm | - | - | - |
| 1778059944 | 18.33° C | 69% | 1008.8 hPa | 0 mm | - | - | - |
| 1778059643 | 18.89° C | 69% | 1008.8 hPa | 0 mm | - | - | - |
| 1778059343 | 18.33° C | 69% | 1008.8 hPa | 0 mm | - | - | - |
| 1778059045 | 18.33° C | 68% | 1008.7 hPa | 0 mm | - | - | - |
* Rain latest hour (hover to see other rain measurements)
** Current wind speed in m/s (hover to see current wind gust speed)